Time;durP1;ratioP1;P1;durP2;ratioP2;P2;SDS_P1;SDS_P2;PMS_P1;PMS_P2;Temp;Humidity;BMP_temperature;BMP_pressure;BME280_temperature;BME280_humidity;BME280_pressure;Samples;Min_cycle;Max_cycle;Signal;HPM_P1;HPM_P2
2022/04/01 05:02:46;;;;;;;9.17;6.23;;;4.60;99.90;;;;;;5032678;23;20649;-94
2022/04/01 05:05:25;;;;;;;10.60;6.43;;;4.70;99.90;;;;;;4959468;29;20355;-91
2022/04/01 05:08:07;;;;;;;9.45;6.45;;;4.40;99.90;;;;;;4959273;29;20059;-93
2022/04/01 05:10:44;;;;;;;9.55;6.40;;;4.40;99.90;;;;;;4959787;29;20055;-93
2022/04/01 05:13:19;;;;;;;9.57;6.35;;;4.50;99.90;;;;;;4960180;28;20139;-93
2022/04/01 05:15:54;;;;;;;9.13;6.30;;;4.60;99.90;;;;;;4960127;29;20488;-91
2022/04/01 05:18:33;;;;;;;8.18;5.50;;;4.60;99.90;;;;;;4959728;29;20082;-89
2022/04/01 05:21:04;;;;;;;8.60;5.88;;;4.60;99.90;;;;;;4959558;28;20094;-90
2022/04/01 05:23:44;;;;;;;7.78;5.15;;;4.50;99.90;;;;;;4959827;29;20488;-91
2022/04/01 05:26:14;;;;;;;8.57;5.53;;;4.70;99.90;;;;;;4959942;29;20078;-92
2022/04/01 05:28:48;;;;;;;8.80;5.78;;;4.70;99.90;;;;;;4960001;29;20047;-95
2022/04/01 05:31:26;;;;;;;8.02;5.32;;;4.60;99.90;;;;;;4960072;29;20051;-92
2022/04/01 05:34:08;;;;;;;8.02;5.53;;;4.70;99.90;;;;;;4959793;29;20081;-91
2022/04/01 05:36:36;;;;;;;7.60;5.40;;;4.50;99.90;;;;;;4959885;29;20382;-91
2022/04/01 05:39:04;;;;;;;7.93;5.10;;;4.30;99.90;;;;;;4960097;29;20115;-91
2022/04/01 05:41:33;;;;;;;6.65;4.82;;;4.40;99.90;;;;;;4959853;29;20133;-90
2022/04/01 05:44:03;;;;;;;7.57;4.78;;;4.40;99.90;;;;;;4959616;29;20106;-94
2022/04/01 05:46:31;;;;;;;7.43;5.00;;;4.20;99.90;;;;;;4960048;28;20445;-96
2022/04/01 05:49:01;;;;;;;6.68;4.50;;;4.10;99.90;;;;;;4959899;29;20055;-92
2022/04/01 05:51:31;;;;;;;6.90;4.57;;;4.10;99.90;;;;;;4959489;29;20505;-91
2022/04/01 05:54:00;;;;;;;6.63;4.47;;;4.10;99.90;;;;;;4959602;28;20386;-92
2022/04/01 05:56:31;;;;;;;6.30;4.20;;;4.10;99.90;;;;;;4959288;28;20078;-92
2022/04/01 05:58:58;;;;;;;6.93;4.63;;;4.30;99.90;;;;;;4958693;29;20043;-89
2022/04/01 06:01:40;;;;;;;7.35;4.78;;;4.30;99.90;;;;;;4958736;29;20085;-95
2022/04/01 06:04:47;;;;;;;7.40;4.55;;;4.20;99.90;;;;;;4959215;29;20503;-90
2022/04/01 06:07:28;;;;;;;7.05;4.70;;;4.20;99.90;;;;;;4959640;29;20047;-94
2022/04/01 06:10:05;;;;;;;6.70;4.47;;;4.30;99.90;;;;;;4954066;28;20047;-95
2022/04/01 06:12:53;;;;;;;6.28;4.43;;;4.20;99.90;;;;;;4959321;28;20047;-91
2022/04/01 06:15:29;;;;;;;6.40;4.32;;;4.30;99.90;;;;;;4960342;28;20115;-87
2022/04/01 06:18:15;;;;;;;7.25;4.35;;;4.20;99.90;;;;;;4979449;28;20094;-91
2022/04/01 06:20:48;;;;;;;5.93;4.13;;;4.20;99.90;;;;;;4976039;28;20055;-89
2022/04/01 06:23:27;;;;;;;5.60;3.70;;;4.20;99.90;;;;;;4961176;28;20134;-92
2022/04/01 06:25:59;;;;;;;5.75;3.80;;;4.20;99.90;;;;;;4963506;28;20134;-90
2022/04/01 06:28:30;;;;;;;4.95;3.60;;;4.00;99.90;;;;;;4980130;28;20054;-96
2022/04/01 06:31:05;;;;;;;6.03;3.65;;;3.90;99.90;;;;;;4968069;28;20047;-95
2022/04/01 06:33:42;;;;;;;;;;;3.90;99.90;;;;;;4966734;28;20090;-91
2022/04/01 06:36:15;;;;;;;4.88;3.05;;;4.00;99.90;;;;;;4978359;28;20523;-90
2022/04/01 06:38:54;;;;;;;5.10;3.28;;;3.80;99.90;;;;;;4972845;28;20172;-89
2022/04/01 06:41:24;;;;;;;5.28;3.78;;;4.00;99.90;;;;;;4963385;28;20428;-91
2022/04/01 06:43:51;;;;;;;5.03;3.30;;;4.00;99.90;;;;;;4974159;28;20047;-90
2022/04/01 06:46:19;;;;;;;4.70;3.30;;;4.10;99.90;;;;;;4958675;29;20055;-90
2022/04/01 06:48:46;;;;;;;5.43;3.55;;;4.10;99.90;;;;;;4958065;29;20106;-90
2022/04/01 06:51:15;;;;;;;5.47;3.60;;;4.00;99.90;;;;;;4958595;29;20055;-91
2022/04/01 06:53:43;;;;;;;6.50;3.63;;;3.90;99.90;;;;;;4958222;29;20113;-92
2022/04/01 06:56:10;;;;;;;5.75;4.00;;;3.90;99.90;;;;;;4957930;29;20114;-91
2022/04/01 06:58:38;;;;;;;6.15;3.65;;;3.90;99.90;;;;;;4957704;28;20071;-94
2022/04/01 07:01:05;;;;;;;5.20;3.70;;;3.90;99.90;;;;;;4953905;29;20122;-91
2022/04/01 07:03:33;;;;;;;5.10;3.55;;;4.00;99.90;;;;;;4958129;29;20512;-90
2022/04/01 07:06:02;;;;;;;5.35;3.25;;;3.90;99.90;;;;;;4960466;28;20484;-91
2022/04/01 07:08:31;;;;;;;5.70;3.90;;;3.90;99.90;;;;;;4991974;28;20042;-87
2022/04/01 07:10:59;;;;;;;6.25;4.43;;;3.70;99.90;;;;;;4983569;28;20058;-83
2022/04/01 07:13:26;;;;;;;7.35;4.72;;;3.70;99.90;;;;;;4996473;28;20054;-89
2022/04/01 07:15:54;;;;;;;8.10;4.68;;;3.50;99.90;;;;;;4996245;28;20140;-89
2022/04/01 07:18:21;;;;;;;7.90;4.75;;;3.50;99.90;;;;;;4996400;28;20106;-91
2022/04/01 07:20:49;;;;;;;8.20;4.72;;;3.70;99.90;;;;;;4996324;28;20479;-87
2022/04/01 07:23:16;;;;;;;8.00;5.03;;;3.70;99.90;;;;;;4996358;28;20131;-83
2022/04/01 07:25:44;;;;;;;9.82;5.85;;;3.70;99.90;;;;;;4995856;28;20054;-84
2022/04/01 07:28:11;;;;;;;8.65;5.05;;;3.50;99.90;;;;;;4996303;28;20499;-87
2022/04/01 07:30:39;;;;;;;8.88;5.53;;;3.30;99.90;;;;;;4996368;28;20156;-83
2022/04/01 07:33:06;;;;;;;8.90;5.00;;;3.30;99.90;;;;;;4996157;28;20090;-86
2022/04/01 07:35:34;;;;;;;9.68;5.60;;;3.40;99.90;;;;;;4996201;28;20062;-86
2022/04/01 07:38:01;;;;;;;8.73;5.43;;;3.40;99.90;;;;;;4995724;28;20112;-82
2022/04/01 07:40:28;;;;;;;8.18;5.18;;;3.20;99.90;;;;;;4995563;28;20133;-81
2022/04/01 07:42:57;;;;;;;8.15;5.07;;;3.30;99.90;;;;;;4995383;28;20646;-82
2022/04/01 07:45:25;;;;;;;8.15;5.20;;;3.30;99.90;;;;;;4995582;28;20086;-89
2022/04/01 07:47:54;;;;;;;9.48;6.25;;;3.50;99.90;;;;;;4995772;28;20130;-84
2022/04/01 07:50:22;;;;;;;9.93;5.65;;;3.50;99.90;;;;;;4995877;28;20046;-88
2022/04/01 07:52:49;;;;;;;10.43;6.35;;;3.40;99.90;;;;;;4995850;28;20046;-85
2022/04/01 07:55:18;;;;;;;10.32;6.78;;;3.30;99.90;;;;;;4995787;28;20056;-85
2022/04/01 07:57:47;;;;;;;9.25;5.97;;;3.20;99.90;;;;;;4995826;28;20080;-88
2022/04/01 08:00:18;;;;;;;9.93;6.38;;;3.30;99.90;;;;;;4957922;28;20051;-89
2022/04/01 08:02:47;;;;;;;8.93;5.80;;;3.20;99.90;;;;;;4938032;29;20106;-87
2022/04/01 08:05:14;;;;;;;9.02;6.30;;;3.30;99.90;;;;;;4937643;29;20062;-88
2022/04/01 08:07:41;;;;;;;10.10;5.63;;;3.30;99.90;;;;;;4937466;29;20095;-90
2022/04/01 08:10:10;;;;;;;9.75;6.20;;;3.20;99.90;;;;;;4937958;29;20417;-88
2022/04/01 08:12:37;;;;;;;9.80;6.22;;;3.20;99.90;;;;;;4941306;29;20564;-85
2022/04/01 08:15:06;;;;;;;8.85;5.75;;;3.10;99.90;;;;;;4941842;29;20147;-87
2022/04/01 08:17:34;;;;;;;9.43;6.13;;;3.10;99.90;;;;;;4941205;29;20698;-84
2022/04/01 08:20:02;;;;;;;9.88;6.38;;;3.10;99.90;;;;;;4941669;29;20147;-87
2022/04/01 08:22:29;;;;;;;10.75;6.80;;;3.30;99.90;;;;;;4941285;29;20075;-82
2022/04/01 08:24:56;;;;;;;8.85;6.13;;;3.40;99.90;;;;;;4941246;29;20465;-87
2022/04/01 08:27:23;;;;;;;10.00;6.53;;;3.30;99.90;;;;;;4940889;29;20139;-86
2022/04/01 08:29:54;;;;;;;11.00;6.88;;;3.30;99.90;;;;;;4940909;29;20060;-89
2022/04/01 08:32:23;;;;;;;11.18;6.07;;;3.30;99.90;;;;;;4941239;29;20417;-87
2022/04/01 08:34:51;;;;;;;9.95;6.40;;;3.40;99.90;;;;;;4941999;29;20101;-88
2022/04/01 08:37:18;;;;;;;10.10;6.05;;;3.30;99.90;;;;;;4941303;29;20107;-94
2022/04/01 08:39:47;;;;;;;10.13;6.55;;;3.40;99.90;;;;;;4940889;29;20095;-90
2022/04/01 08:42:14;;;;;;;10.45;6.57;;;3.30;99.90;;;;;;4941366;29;20066;-91
2022/04/01 08:44:46;;;;;;;8.50;6.00;;;3.40;99.90;;;;;;4941147;29;20451;-87
2022/04/01 08:47:14;;;;;;;9.40;6.20;;;3.40;99.90;;;;;;4941240;29;20052;-87
2022/04/01 08:49:41;;;;;;;9.45;6.43;;;3.30;99.90;;;;;;4941239;29;20130;-86
2022/04/01 08:52:11;;;;;;;9.05;6.00;;;3.40;99.90;;;;;;4940760;29;20458;-83
2022/04/01 08:54:38;;;;;;;10.30;6.75;;;3.40;99.90;;;;;;4941515;29;20060;-86
2022/04/01 08:57:08;;;;;;;11.82;6.82;;;3.30;99.90;;;;;;4941129;29;20147;-87
2022/04/01 08:59:35;;;;;;;10.57;6.63;;;3.30;99.90;;;;;;4941314;29;20058;-85
2022/04/01 09:02:06;;;;;;;10.65;6.38;;;3.40;99.90;;;;;;4941393;29;20150;-89
2022/04/01 09:04:33;;;;;;;11.05;7.30;;;3.50;99.90;;;;;;4941366;29;20127;-89
2022/04/01 09:07:13;;;;;;;9.80;6.57;;;3.40;99.90;;;;;;4940763;29;20142;-89
2022/04/01 09:09:43;;;;;;;9.95;6.75;;;3.50;99.90;;;;;;4940331;29;20086;-88
2022/04/01 09:12:13;;;;;;;10.32;7.00;;;3.40;99.90;;;;;;4940815;29;20134;-83
2022/04/01 09:14:42;;;;;;;10.15;6.70;;;3.50;99.90;;;;;;4940450;29;20079;-85
2022/04/01 09:17:13;;;;;;;11.43;7.45;;;3.50;99.90;;;;;;4940248;29;20405;-85
2022/04/01 09:19:40;;;;;;;10.27;6.60;;;3.40;99.90;;;;;;4940459;29;20123;-81
2022/04/01 09:22:24;;;;;;;11.32;7.15;;;3.50;99.90;;;;;;4939547;29;20099;-82
2022/04/01 09:25:02;;;;;;;11.25;6.85;;;3.60;99.90;;;;;;4940129;29;20473;-84
2022/04/01 09:27:42;;;;;;;9.13;6.38;;;3.50;99.90;;;;;;4939562;29;20506;-83
2022/04/01 09:30:15;;;;;;;10.13;6.80;;;3.60;99.90;;;;;;4939710;29;20083;-85
2022/04/01 09:32:44;;;;;;;10.82;6.97;;;3.60;99.90;;;;;;4939535;29;20062;-83
2022/04/01 09:35:12;;;;;;;9.90;6.63;;;3.30;99.90;;;;;;4940090;29;20474;-85
2022/04/01 09:37:44;;;;;;;9.60;6.45;;;3.20;99.90;;;;;;4939997;29;20446;-80
2022/04/01 09:40:13;;;;;;;11.43;7.43;;;3.50;99.90;;;;;;4940021;29;20558;-82
2022/04/01 09:42:47;;;;;;;9.27;6.60;;;3.40;99.90;;;;;;4940200;29;20482;-82
2022/04/01 09:45:18;;;;;;;9.52;6.35;;;3.40;99.90;;;;;;4940070;29;20059;-90
2022/04/01 09:47:45;;;;;;;9.73;6.22;;;3.40;99.90;;;;;;4940103;29;20142;-88
2022/04/01 09:50:16;;;;;;;9.20;6.13;;;3.40;99.90;;;;;;4939426;29;20056;-88
2022/04/01 09:52:46;;;;;;;8.98;6.25;;;3.60;99.90;;;;;;4940016;29;20048;-86
2022/04/01 09:55:13;;;;;;;10.10;6.80;;;3.60;99.90;;;;;;4939775;29;20083;-85
2022/04/01 09:57:40;;;;;;;9.48;6.30;;;3.60;99.90;;;;;;4939567;29;20082;-83
2022/04/01 10:00:09;;;;;;;8.93;5.90;;;3.50;99.90;;;;;;4939715;29;20111;-84
2022/04/01 10:02:39;;;;;;;9.35;6.30;;;3.80;99.90;;;;;;4939254;29;20059;-81
2022/04/01 10:05:07;;;;;;;8.85;5.95;;;3.30;99.90;;;;;;4939784;29;20070;-82
2022/04/01 10:07:36;;;;;;;8.20;5.43;;;3.50;99.90;;;;;;4939214;29;20202;-82
2022/04/01 10:10:07;;;;;;;8.32;5.50;;;3.50;99.90;;;;;;4939307;29;20090;-82
2022/04/01 10:12:45;;;;;;;8.23;5.63;;;3.50;99.90;;;;;;4939574;29;20058;-88
2022/04/01 10:15:13;;;;;;;8.13;5.63;;;3.80;99.90;;;;;;4939497;29;20130;-87
2022/04/01 10:17:42;;;;;;;7.85;5.45;;;3.50;99.90;;;;;;4939502;29;20410;-83
2022/04/01 10:20:13;;;;;;;8.07;5.13;;;3.40;99.90;;;;;;4939307;29;20051;-86
2022/04/01 10:22:43;;;;;;;7.78;4.95;;;3.40;99.90;;;;;;4939213;29;20063;-89
2022/04/01 10:25:18;;;;;;;7.47;4.82;;;3.20;99.90;;;;;;4939105;29;20099;-86
2022/04/01 10:27:50;;;;;;;8.73;5.53;;;3.30;99.90;;;;;;4939401;29;20051;-83
2022/04/01 10:30:21;;;;;;;9.00;5.10;;;3.40;99.90;;;;;;4939045;29;20068;-83
2022/04/01 10:32:49;;;;;;;7.90;5.10;;;3.40;99.90;;;;;;4938582;29;20480;-86
2022/04/01 10:35:26;;;;;;;8.13;5.22;;;3.50;99.90;;;;;;4938913;29;20087;-87
2022/04/01 10:37:56;;;;;;;6.45;3.92;;;3.60;99.90;;;;;;4939176;29;20436;-88
2022/04/01 10:40:32;;;;;;;6.00;3.55;;;3.20;99.90;;;;;;4938902;29;20143;-88
2022/04/01 10:43:11;;;;;;;6.30;3.80;;;3.20;99.90;;;;;;4939015;29;20072;-84
2022/04/01 10:45:41;;;;;;;6.00;3.78;;;3.50;99.90;;;;;;4939106;29;20146;-83
2022/04/01 10:54:01;;;;;;;5.90;3.10;;;3.40;99.90;;;;;;4938922;29;20508;-87
2022/04/01 10:56:37;;;;;;;4.60;2.72;;;3.30;99.90;;;;;;4938659;29;20492;-87
2022/04/01 10:59:12;;;;;;;4.38;2.60;;;3.40;99.90;;;;;;4938547;29;20115;-92
2022/04/01 11:01:43;;;;;;;4.75;2.55;;;3.50;99.90;;;;;;4938461;29;20434;-89
2022/04/01 11:04:31;;;;;;;6.30;3.83;;;3.50;99.90;;;;;;4938508;29;20062;-86
2022/04/01 11:07:02;;;;;;;6.43;3.47;;;3.70;99.90;;;;;;4938606;29;20079;-86
2022/04/01 11:09:42;;;;;;;4.13;2.50;;;3.70;99.90;;;;;;4938102;29;20442;-87
2022/04/01 11:12:35;;;;;;;4.65;2.60;;;3.80;99.90;;;;;;4938648;29;20078;-82
2022/04/01 11:15:28;;;;;;;3.70;2.20;;;3.60;99.90;;;;;;4938260;29;20562;-82
2022/04/01 11:18:07;;;;;;;4.15;2.40;;;3.80;99.90;;;;;;4938561;29;20103;-87
2022/04/01 11:20:37;;;;;;;4.28;2.30;;;3.80;99.90;;;;;;4938470;29;20047;-85
2022/04/01 11:23:13;;;;;;;4.28;2.50;;;3.80;99.90;;;;;;4938570;29;20044;-91
2022/04/01 11:25:54;;;;;;;4.68;2.33;;;3.70;99.90;;;;;;4938349;29;20490;-90
2022/04/01 11:28:26;;;;;;;3.95;2.60;;;3.50;99.90;;;;;;4938000;29;20075;-87
2022/04/01 11:31:17;;;;;;;4.10;2.60;;;3.70;99.90;;;;;;4938354;29;20105;-87
2022/04/01 11:34:01;;;;;;;4.03;2.45;;;3.90;99.90;;;;;;4937963;29;20052;-86
2022/04/01 11:36:30;;;;;;;4.65;2.75;;;3.80;99.90;;;;;;4937781;29;20055;-89
2022/04/01 11:38:58;;;;;;;4.18;2.50;;;3.50;99.90;;;;;;4937900;29;20502;-88
2022/04/01 11:41:26;;;;;;;4.57;2.60;;;3.70;99.90;;;;;;4930279;29;20521;-86
2022/04/01 11:43:55;;;;;;;4.43;2.70;;;3.70;99.90;;;;;;4937865;29;20111;-90
2022/04/01 11:46:23;;;;;;;3.80;2.45;;;3.30;99.90;;;;;;4938074;29;20080;-91
2022/04/01 11:48:50;;;;;;;4.20;2.65;;;3.40;99.90;;;;;;4937776;29;20477;-92
2022/04/01 11:51:20;;;;;;;4.45;2.70;;;3.30;99.90;;;;;;4938209;29;20087;-86
2022/04/01 11:53:50;;;;;;;4.78;2.90;;;3.40;99.90;;;;;;4937565;29;20056;-87
2022/04/01 11:56:19;;;;;;;3.90;2.55;;;3.50;99.90;;;;;;4937769;29;20051;-86
2022/04/01 11:59:00;;;;;;;3.85;2.47;;;3.30;99.90;;;;;;4937844;29;20504;-86
2022/04/01 12:01:31;;;;;;;4.18;2.40;;;3.40;99.90;;;;;;4946062;29;20059;-87
2022/04/01 12:04:07;;;;;;;4.72;2.33;;;3.50;99.90;;;;;;4956936;29;20090;-84
2022/04/01 12:09:20;;;;;;;4.70;2.60;;;3.90;99.90;;;;;;4956681;29;20543;-85
2022/04/01 12:11:47;;;;;;;4.18;2.40;;;4.00;99.90;;;;;;4956904;28;20047;-84
2022/04/01 12:14:24;;;;;;;3.78;2.33;;;4.00;99.90;;;;;;4984116;28;20051;-90
2022/04/01 12:16:52;;;;;;;5.50;2.15;;;3.90;99.90;;;;;;4984011;28;20050;-94
2022/04/01 12:19:21;;;;;;;4.28;2.25;;;3.60;99.90;;;;;;4986974;28;20062;-88
2022/04/01 12:21:50;;;;;;;4.85;2.33;;;3.70;99.90;;;;;;4977460;28;20137;-83
2022/04/01 12:24:18;;;;;;;4.93;2.17;;;3.70;99.90;;;;;;4982542;28;20062;-84
2022/04/01 12:26:48;;;;;;;3.97;2.10;;;3.80;99.90;;;;;;4984138;28;20415;-91
2022/04/01 12:29:25;;;;;;;3.85;2.00;;;3.50;99.90;;;;;;4989872;28;20081;-85
2022/04/01 12:31:58;;;;;;;3.67;2.00;;;3.60;99.90;;;;;;4982332;28;20046;-92
2022/04/01 12:34:27;;;;;;;3.40;2.08;;;3.70;99.90;;;;;;4986336;28;20050;-90
2022/04/01 12:37:00;;;;;;;3.13;1.73;;;4.00;99.90;;;;;;4990332;28;20117;-89
2022/04/01 12:39:29;;;;;;;3.00;1.92;;;3.90;99.90;;;;;;4970006;28;20042;-90
2022/04/01 12:41:59;;;;;;;3.20;1.77;;;3.80;99.90;;;;;;4979014;28;20106;-90
2022/04/01 12:44:30;;;;;;;3.30;2.05;;;3.80;99.90;;;;;;4982380;28;20137;-94
2022/04/01 12:47:00;;;;;;;3.92;2.08;;;3.90;99.90;;;;;;4990162;28;20478;-96
2022/04/01 12:49:32;;;;;;;3.40;2.00;;;3.90;99.90;;;;;;4969786;28;20098;-96
2022/04/01 12:57:35;;;;;;;4.32;2.30;;;3.80;99.90;;;;;;4991190;28;20053;-96
2022/04/01 13:00:17;;;;;;;3.60;2.00;;;3.80;99.90;;;;;;4981826;28;20050;-95
2022/04/01 13:02:46;;;;;;;4.05;2.13;;;3.60;99.90;;;;;;4990878;28;20054;-96
2022/04/01 13:05:18;;;;;;;5.05;2.78;;;3.60;99.90;;;;;;4995534;28;20564;-96
2022/04/01 13:07:46;;;;;;;3.53;2.10;;;3.50;99.90;;;;;;5002609;28;20058;-95
2022/04/01 13:10:16;;;;;;;4.32;2.50;;;3.50;99.90;;;;;;4999233;28;20062;-96
2022/04/01 13:12:51;;;;;;;3.92;2.28;;;3.40;99.90;;;;;;5000495;28;20498;-96
2022/04/01 13:15:27;;;;;;;4.07;2.50;;;3.20;99.90;;;;;;5001437;28;20153;-96
2022/04/01 13:17:59;;;;;;;4.57;2.75;;;3.30;99.90;;;;;;4981459;28;20121;-94
2022/04/01 13:20:29;;;;;;;4.05;2.55;;;3.30;99.90;;;;;;4978887;28;20069;-95
2022/04/01 13:22:59;;;;;;;5.45;3.17;;;3.40;99.90;;;;;;4978855;28;20054;-93
2022/04/01 13:25:29;;;;;;;4.45;3.10;;;3.50;99.90;;;;;;4979301;28;20063;-95
2022/04/01 13:28:05;;;;;;;5.15;3.20;;;3.30;99.90;;;;;;4983214;28;20051;-96
2022/04/01 13:30:40;;;;;;;4.50;2.88;;;3.40;99.90;;;;;;4980629;28;20142;-96
2022/04/01 13:33:10;;;;;;;4.65;2.95;;;3.40;99.90;;;;;;4981813;28;20057;-93
2022/04/01 13:35:38;;;;;;;4.68;2.90;;;3.40;99.90;;;;;;4980642;28;20048;-94
2022/04/01 13:38:06;;;;;;;4.70;3.10;;;3.40;99.90;;;;;;4980630;28;20047;-93
2022/04/01 13:40:33;;;;;;;6.80;3.47;;;3.40;99.90;;;;;;4990820;28;20050;-94
2022/04/01 13:43:01;;;;;;;5.05;3.30;;;3.30;99.90;;;;;;4991765;28;20117;-95
2022/04/01 13:45:37;;;;;;;5.35;3.50;;;3.50;99.90;;;;;;4984688;28;20050;-96
2022/04/01 13:48:08;;;;;;;5.85;4.05;;;3.40;99.90;;;;;;4998316;28;20046;-93
2022/04/01 13:50:39;;;;;;;5.97;4.00;;;3.20;99.90;;;;;;4996412;28;20639;-96
2022/04/01 13:53:08;;;;;;;4.68;3.35;;;3.20;99.90;;;;;;5000013;28;20086;-96
2022/04/01 13:55:46;;;;;;;6.55;3.90;;;3.20;99.90;;;;;;4999752;28;20057;-96
2022/04/01 13:58:14;;;;;;;6.25;4.15;;;3.20;99.90;;;;;;4991701;28;20420;-94
2022/04/01 14:00:43;;;;;;;5.70;3.95;;;3.10;99.90;;;;;;4977657;28;20066;-93
2022/04/01 14:06:11;;;;;;;7.72;4.10;;;3.10;99.90;;;;;;4976712;28;20377;-94
2022/04/01 14:08:40;;;;;;;6.03;4.38;;;3.50;99.90;;;;;;4991464;28;20420;-94
2022/04/01 14:11:12;;;;;;;6.45;4.45;;;3.40;99.90;;;;;;4982988;28;20096;-93
2022/04/01 14:13:40;;;;;;;6.53;4.38;;;3.30;99.90;;;;;;4985297;28;20109;-94
2022/04/01 14:16:07;;;;;;;6.13;4.38;;;3.30;99.90;;;;;;4984093;28;20053;-82
2022/04/01 14:18:36;;;;;;;7.20;4.38;;;3.30;99.90;;;;;;4982616;28;20082;-95
2022/04/01 14:21:06;;;;;;;6.45;4.47;;;3.40;99.90;;;;;;4968609;28;20051;-93
2022/04/01 14:23:36;;;;;;;7.28;4.97;;;3.50;99.90;;;;;;4965097;28;20050;-91
2022/04/01 14:26:06;;;;;;;7.40;4.50;;;3.50;99.90;;;;;;4965058;28;20070;-92
2022/04/01 14:28:34;;;;;;;7.22;5.30;;;3.50;99.90;;;;;;4958123;28;20146;-94
2022/04/01 14:31:02;;;;;;;6.43;4.57;;;3.40;99.90;;;;;;4968173;28;20082;-90
2022/04/01 14:33:30;;;;;;;7.68;5.43;;;3.20;99.90;;;;;;4962529;28;20498;-92
2022/04/01 14:36:00;;;;;;;6.47;4.53;;;3.20;99.90;;;;;;4960958;28;20047;-96
2022/04/01 14:38:28;;;;;;;8.20;5.43;;;3.30;99.90;;;;;;4976559;28;20061;-92
2022/04/01 14:40:57;;;;;;;7.78;5.28;;;3.70;99.90;;;;;;4961014;28;20078;-91
2022/04/01 14:43:25;;;;;;;7.93;5.13;;;3.60;99.90;;;;;;4985213;28;20515;-93
2022/04/01 14:45:53;;;;;;;7.95;5.35;;;3.60;99.90;;;;;;4978239;28;20104;-93
2022/04/01 14:48:20;;;;;;;6.38;4.50;;;3.50;99.90;;;;;;4972871;28;20075;-89
2022/04/01 14:50:49;;;;;;;6.90;4.95;;;3.50;99.90;;;;;;4972173;28;20743;-84
2022/04/01 14:53:20;;;;;;;7.05;4.55;;;3.30;99.90;;;;;;4970204;28;20480;-89
2022/04/01 14:55:51;;;;;;;7.13;4.90;;;3.30;99.90;;;;;;4978924;28;20055;-92
2022/04/01 14:58:20;;;;;;;6.88;4.28;;;3.20;99.90;;;;;;4975410;28;20043;-94
2022/04/01 15:00:48;;;;;;;7.55;5.00;;;3.40;99.90;;;;;;4973817;28;20047;-92
2022/04/01 15:03:15;;;;;;;7.22;4.88;;;3.30;99.90;;;;;;4978297;28;20058;-90
2022/04/01 15:05:54;;;;;;;7.45;5.05;;;3.30;99.90;;;;;;4987182;28;20035;-96
2022/04/01 15:08:55;;;;;;;7.57;5.47;;;3.50;99.90;;;;;;4981773;28;20055;-96
2022/04/01 15:11:23;;;;;;;7.95;5.82;;;3.20;99.90;;;;;;4972546;28;20062;-96
2022/04/01 15:16:35;;;;;;;8.13;5.72;;;2.70;99.90;;;;;;4979165;28;20047;-93
2022/04/01 15:19:10;;;;;;;8.88;6.10;;;2.50;99.90;;;;;;4975813;28;20050;-94
2022/04/01 15:24:21;;;;;;;8.40;6.15;;;2.70;99.90;;;;;;4961201;28;20449;-95
2022/04/01 15:26:58;;;;;;;8.55;6.20;;;3.00;99.90;;;;;;4969567;28;20082;-95
2022/04/01 15:29:29;;;;;;;8.70;6.43;;;3.00;99.90;;;;;;4988217;28;20047;-95
2022/04/01 15:32:10;;;;;;;10.30;6.75;;;2.90;99.90;;;;;;4979217;28;20150;-96
2022/04/01 15:34:43;;;;;;;9.02;6.93;;;3.10;99.90;;;;;;4970953;28;20059;-96
2022/04/01 15:37:16;;;;;;;9.70;6.95;;;2.80;99.90;;;;;;4976960;28;20054;-93
2022/04/01 15:39:52;;;;;;;8.82;6.43;;;3.00;99.90;;;;;;4993715;28;20134;-96
2022/04/01 15:42:21;;;;;;;10.27;6.78;;;3.10;99.90;;;;;;4978895;28;20117;-96
2022/04/01 15:44:54;;;;;;;9.15;6.93;;;2.80;99.90;;;;;;4980691;28;20127;-94
2022/04/01 15:47:24;;;;;;;8.52;6.18;;;2.90;99.90;;;;;;4988841;28;20084;-94
2022/04/01 15:49:52;;;;;;;9.65;6.80;;;3.10;99.90;;;;;;4989108;28;20054;-95
2022/04/01 15:52:20;;;;;;;8.98;6.75;;;3.10;99.90;;;;;;4961369;28;20058;-96
2022/04/01 15:54:55;;;;;;;10.40;7.40;;;3.10;99.90;;;;;;4986179;28;20043;-93
2022/04/01 15:57:23;;;;;;;9.02;6.63;;;3.00;99.90;;;;;;4949550;28;20062;-95
2022/04/01 15:59:51;;;;;;;10.00;6.80;;;3.00;99.90;;;;;;4985381;23;20058;-92
2022/04/01 16:02:25;;;;;;;9.93;6.95;;;3.00;99.90;;;;;;4947234;29;20575;-93
2022/04/01 16:04:58;;;;;;;9.80;6.93;;;2.90;99.90;;;;;;4943973;29;20051;-93
2022/04/01 16:07:31;;;;;;;9.07;6.38;;;2.70;99.90;;;;;;4947163;28;20099;-92
2022/04/01 16:10:03;;;;;;;9.00;7.00;;;2.90;99.90;;;;;;4942093;29;20146;-93
2022/04/01 16:12:33;;;;;;;9.80;7.57;;;2.90;99.90;;;;;;4941533;29;20051;-94
2022/04/01 16:15:06;;;;;;;9.98;7.25;;;2.90;99.90;;;;;;4955331;28;20083;-93
2022/04/01 16:17:33;;;;;;;10.50;7.68;;;2.90;99.90;;;;;;4958891;28;20059;-86
2022/04/01 16:20:02;;;;;;;11.52;8.20;;;2.70;99.90;;;;;;4958376;28;20066;-88
2022/04/01 16:22:32;;;;;;;11.15;8.43;;;2.60;99.90;;;;;;4956170;29;20051;-88
2022/04/01 16:25:01;;;;;;;10.45;7.60;;;2.60;99.90;;;;;;4959512;28;20047;-88
2022/04/01 16:27:33;;;;;;;10.98;8.15;;;2.90;99.90;;;;;;4960411;28;20067;-88
2022/04/01 16:30:03;;;;;;;12.43;9.00;;;2.80;99.90;;;;;;4954234;28;20047;-91
2022/04/01 16:32:35;;;;;;;12.77;8.25;;;2.50;99.90;;;;;;4937639;28;20089;-90
2022/04/01 16:35:02;;;;;;;13.13;9.32;;;2.50;99.90;;;;;;4968721;28;20133;-91
2022/04/01 16:37:30;;;;;;;11.77;9.00;;;2.40;99.90;;;;;;4970978;28;20110;-91
2022/04/01 16:39:58;;;;;;;11.70;8.65;;;2.20;99.90;;;;;;4964326;28;20047;-90
2022/04/01 16:42:27;;;;;;;13.27;9.30;;;2.50;99.90;;;;;;4949263;29;20077;-89
2022/04/01 16:44:54;;;;;;;12.85;9.18;;;2.50;99.90;;;;;;4957539;28;20047;-90
2022/04/01 16:47:21;;;;;;;13.40;8.73;;;2.50;99.90;;;;;;4959078;28;20532;-86
2022/04/01 16:49:49;;;;;;;11.90;8.30;;;2.50;99.90;;;;;;4945060;29;20062;-88
2022/04/01 16:52:17;;;;;;;11.73;8.68;;;2.70;99.90;;;;;;4946364;29;20053;-86
2022/04/01 16:54:45;;;;;;;13.00;8.57;;;2.70;99.90;;;;;;4957863;28;20062;-91
2022/04/01 16:57:13;;;;;;;13.50;9.40;;;2.50;99.90;;;;;;4968358;28;20049;-92
2022/04/01 16:59:53;;;;;;;12.80;8.93;;;2.40;99.90;;;;;;4953537;29;20115;-93
2022/04/01 17:02:20;;;;;;;11.13;8.02;;;2.50;99.90;;;;;;4943922;29;20130;-83
2022/04/01 17:04:47;;;;;;;11.73;8.40;;;2.50;99.90;;;;;;4964582;28;20093;-82
2022/04/01 17:12:43;;;;;;;13.02;8.93;;;2.40;99.90;;;;;;4960548;29;20066;-91
2022/04/01 17:15:15;;;;;;;12.75;9.15;;;2.40;99.90;;;;;;4967246;28;20106;-85
2022/04/01 17:17:43;;;;;;;13.32;9.02;;;2.40;99.90;;;;;;4959363;28;20111;-88
2022/04/01 17:20:13;;;;;;;13.55;9.57;;;2.50;99.90;;;;;;4958895;28;20047;-81
2022/04/01 17:22:41;;;;;;;13.32;9.45;;;2.30;99.90;;;;;;4971320;28;20119;-90
2022/04/01 17:25:11;;;;;;;12.68;8.80;;;2.30;99.90;;;;;;4967204;28;20149;-83
2022/04/01 17:27:43;;;;;;;14.73;9.82;;;2.20;99.90;;;;;;4978023;28;20065;-90
2022/04/01 17:30:17;;;;;;;12.68;8.98;;;2.10;99.90;;;;;;4973857;28;20119;-84
2022/04/01 17:32:48;;;;;;;12.93;9.05;;;2.10;99.90;;;;;;4982104;28;20200;-86
2022/04/01 17:35:18;;;;;;;13.57;9.68;;;2.20;99.90;;;;;;4958923;28;20053;-84
2022/04/01 17:37:48;;;;;;;14.50;10.05;;;2.10;99.90;;;;;;4966262;28;20109;-82
2022/04/01 17:40:19;;;;;;;12.48;9.30;;;2.20;99.90;;;;;;4960951;29;20134;-87
2022/04/01 17:42:49;;;;;;;14.75;9.18;;;2.00;99.90;;;;;;4940930;29;20087;-86
2022/04/01 17:45:19;;;;;;;15.20;10.25;;;2.10;99.90;;;;;;4935391;29;20052;-87
2022/04/01 17:47:47;;;;;;;14.23;9.55;;;2.10;99.90;;;;;;4951526;29;20074;-84
2022/04/01 17:50:15;;;;;;;13.80;9.50;;;2.20;99.90;;;;;;4950968;29;20052;-85
2022/04/01 17:52:43;;;;;;;14.35;10.23;;;2.10;99.90;;;;;;4933817;29;20047;-87
2022/04/01 17:55:11;;;;;;;15.23;10.40;;;2.10;99.90;;;;;;4932937;29;20420;-87
2022/04/01 17:57:43;;;;;;;13.45;9.55;;;2.10;99.90;;;;;;4971703;28;20058;-87
2022/04/01 18:00:14;;;;;;;15.57;11.18;;;2.20;99.90;;;;;;4975672;28;20436;-86
2022/04/01 18:02:48;;;;;;;14.63;10.63;;;2.00;99.90;;;;;;4958610;29;20043;-84
2022/04/01 18:05:25;;;;;;;15.18;9.85;;;2.00;99.90;;;;;;4968149;29;20091;-92
2022/04/01 18:07:59;;;;;;;14.93;10.60;;;2.10;99.90;;;;;;4951357;29;20094;-89
2022/04/01 18:10:28;;;;;;;14.53;10.37;;;2.00;99.90;;;;;;4972785;28;20053;-91
2022/04/01 18:15:31;;;;;;;15.63;10.13;;;1.90;99.90;;;;;;5006995;23;20063;-89
2022/04/01 18:18:01;;;;;;;15.15;10.18;;;2.00;99.90;;;;;;4978479;28;20097;-82
2022/04/01 18:20:28;;;;;;;15.90;10.85;;;2.30;99.90;;;;;;4991047;28;20062;-78
2022/04/01 18:22:56;;;;;;;14.95;10.55;;;2.30;99.90;;;;;;4991997;28;20050;-81
2022/04/01 18:25:23;;;;;;;13.75;9.90;;;2.30;99.90;;;;;;4987175;28;20130;-79
2022/04/01 18:28:01;;;;;;;14.80;10.23;;;2.30;99.90;;;;;;4971577;28;20137;-76
2022/04/01 18:30:32;;;;;;;15.02;9.93;;;2.20;99.90;;;;;;4986091;28;20050;-82
2022/04/01 18:33:09;;;;;;;13.85;10.05;;;1.90;99.90;;;;;;4998672;28;20113;-86
2022/04/01 18:35:41;;;;;;;12.88;9.45;;;1.90;99.90;;;;;;4973341;29;20111;-89
2022/04/01 18:38:12;;;;;;;13.63;10.10;;;1.90;99.90;;;;;;4980371;28;20061;-87
2022/04/01 18:40:45;;;;;;;13.57;9.60;;;1.90;99.90;;;;;;4992507;28;20082;-88
2022/04/01 18:43:15;;;;;;;13.30;10.07;;;1.90;99.90;;;;;;4989636;28;20050;-87
2022/04/01 18:45:44;;;;;;;12.73;9.90;;;1.90;99.90;;;;;;4980656;28;20066;-90